Time;durP1;ratioP1;P1;durP2;ratioP2;P2;SDS_P1;SDS_P2;PMS_P1;PMS_P2;Temp;Humidity;BMP_temperature;BMP_pressure;BME280_temperature;BME280_humidity;BME280_pressure;Samples;Min_cycle;Max_cycle;Signal;HPM_P1;HPM_P2
2022/01/20 00:00:53;;;;;;;14.65;2.10;;;;;;;;;;5032301;28;20494;-88
2022/01/20 00:03:30;;;;;;;13.93;2.13;;;;;;;;;;5032067;28;20084;-87
2022/01/20 00:07:02;;;;;;;18.20;2.15;;;;;;;;;;5033422;28;20041;-87
2022/01/20 00:28:02;;;;;;;14.00;1.75;;;;;;;;;;5031746;28;20050;-88
2022/01/20 00:33:33;;;;;;;11.40;2.08;;;;;;;;;;5031876;28;20049;-87
2022/01/20 00:38:28;;;;;;;9.70;1.48;;;;;;;;;;5031616;28;19917;-87
2022/01/20 00:40:55;;;;;;;11.77;2.08;;;;;;;;;;5031378;28;20048;-86
2022/01/20 00:43:21;;;;;;;11.30;2.00;;;;;;;;;;5031665;28;20080;-87
2022/01/20 00:45:47;;;;;;;9.93;2.13;;;;;;;;;;5031433;28;20453;-88
2022/01/20 00:48:13;;;;;;;10.82;2.10;;;;;;;;;;5015049;28;20041;-87
2022/01/20 00:50:39;;;;;;;8.35;1.30;;;;;;;;;;5031303;28;20037;-87
2022/01/20 00:53:05;;;;;;;12.57;1.80;;;;;;;;;;5031501;28;20128;-87
2022/01/20 00:55:31;;;;;;;10.10;1.42;;;;;;;;;;5031112;28;20045;-87
2022/01/20 00:57:58;;;;;;;15.95;1.88;;;;;;;;;;5031660;28;20484;-87
2022/01/20 01:00:24;;;;;;;12.88;1.92;;;;;;;;;;5031119;28;20510;-87
2022/01/20 01:02:50;;;;;;;16.00;1.92;;;;;;;;;;5031332;28;20041;-87
2022/01/20 01:05:16;;;;;;;15.85;2.30;;;;;;;;;;5031121;28;20041;-86
2022/01/20 01:10:09;;;;;;;12.27;1.95;;;;;;;;;;5031041;28;20055;-87
2022/01/20 01:12:58;;;;;;;9.68;1.75;;;;;;;;;;5031410;28;20081;-87
2022/01/20 01:15:38;;;;;;;14.70;2.08;;;;;;;;;;5031218;28;20055;-86
2022/01/20 01:21:12;;;;;;;13.25;1.95;;;;;;;;;;5032359;28;20041;-87
2022/01/20 01:23:39;;;;;;;10.68;1.25;;;;;;;;;;5032414;28;20049;-87
2022/01/20 01:26:07;;;;;;;10.63;1.33;;;;;;;;;;5030870;28;20048;-87
2022/01/20 01:28:34;;;;;;;8.05;1.40;;;;;;;;;;5014681;28;20044;-87
2022/01/20 01:33:55;;;;;;;9.73;1.48;;;;;;;;;;5031114;28;20046;-86
2022/01/20 01:36:22;;;;;;;15.88;1.38;;;;;;;;;;5014546;28;20244;-86
2022/01/20 01:38:49;;;;;;;8.52;1.05;;;;;;;;;;5035058;28;20400;-87
2022/01/20 01:41:18;;;;;;;8.43;1.40;;;;;;;;;;5034549;28;20120;-87
2022/01/20 01:43:45;;;;;;;7.20;0.90;;;;;;;;;;5018249;28;20071;-87
2022/01/20 01:46:14;;;;;;;8.57;1.00;;;;;;;;;;5034569;28;20051;-87
2022/01/20 01:48:41;;;;;;;8.63;0.85;;;;;;;;;;5018467;28;20095;-86
2022/01/20 01:51:07;;;;;;;10.90;0.80;;;;;;;;;;5034397;28;20503;-87
2022/01/20 01:53:33;;;;;;;5.85;0.90;;;;;;;;;;5034522;28;20041;-88
2022/01/20 01:55:59;;;;;;;6.93;1.52;;;;;;;;;;5034264;28;20044;-87
2022/01/20 01:58:25;;;;;;;7.22;1.15;;;;;;;;;;5034520;28;20079;-87
2022/01/20 02:00:51;;;;;;;9.20;1.00;;;;;;;;;;5034206;28;20367;-86
2022/01/20 02:03:17;;;;;;;5.55;0.60;;;;;;;;;;5034605;28;20064;-86
2022/01/20 02:19:13;;;;;;;11.00;1.40;;;;;;;;;;5034206;28;20045;-87
2022/01/20 02:22:05;;;;;;;14.63;2.10;;;;;;;;;;5033905;28;20049;-86
2022/01/20 02:24:32;;;;;;;14.05;1.98;;;;;;;;;;5031727;28;20381;-87
2022/01/20 02:26:58;;;;;;;8.95;1.83;;;;;;;;;;5017196;28;20052;-86
2022/01/20 02:29:24;;;;;;;11.65;1.60;;;;;;;;;;5033913;28;20045;-86
2022/01/20 02:32:00;;;;;;;11.15;1.85;;;;;;;;;;5033570;28;20047;-87
2022/01/20 02:34:29;;;;;;;12.70;1.60;;;;;;;;;;5033749;28;20037;-86
2022/01/20 02:36:57;;;;;;;11.48;1.65;;;;;;;;;;5033554;28;20100;-86
2022/01/20 02:44:57;;;;;;;17.00;1.85;;;;;;;;;;5034028;28;20056;-86
2022/01/20 02:47:23;;;;;;;;;;;;;;;;;;5034576;28;20472;-87
2022/01/20 02:49:49;;;;;;;18.00;3.25;;;;;;;;;;5034860;28;19956;-87
2022/01/20 02:52:15;;;;;;;16.67;2.10;;;;;;;;;;5034736;28;20955;-87
2022/01/20 02:54:42;;;;;;;15.68;2.40;;;;;;;;;;5033425;28;20041;-88
2022/01/20 02:57:08;;;;;;;17.10;2.35;;;;;;;;;;5016857;28;20052;-87
2022/01/20 02:59:34;;;;;;;17.25;3.13;;;;;;;;;;5033346;28;20443;-87
2022/01/20 03:02:00;;;;;;;18.95;2.72;;;;;;;;;;5033164;28;20492;-88
2022/01/20 03:04:27;;;;;;;20.33;2.63;;;;;;;;;;5033194;28;20052;-87
2022/01/20 03:06:53;;;;;;;22.40;3.55;;;;;;;;;;5032857;28;20077;-86
2022/01/20 03:09:20;;;;;;;19.65;3.33;;;;;;;;;;5033867;28;20037;-86
2022/01/20 03:11:46;;;;;;;19.20;3.05;;;;;;;;;;5033151;28;20042;-87
2022/01/20 03:14:14;;;;;;;18.90;3.67;;;;;;;;;;5032793;28;20054;-87
2022/01/20 03:16:40;;;;;;;20.48;3.25;;;;;;;;;;5016299;28;20045;-87
2022/01/20 03:19:06;;;;;;;12.25;2.08;;;;;;;;;;5033062;28;20172;-87
2022/01/20 03:21:32;;;;;;;14.68;2.72;;;;;;;;;;5032817;28;20513;-87
2022/01/20 03:23:58;;;;;;;14.27;2.05;;;;;;;;;;5033097;28;20045;-86
2022/01/20 03:26:24;;;;;;;13.13;2.30;;;;;;;;;;5032593;28;20152;-87
2022/01/20 03:28:50;;;;;;;17.60;3.15;;;;;;;;;;5032854;28;20041;-87
2022/01/20 03:31:17;;;;;;;18.88;3.00;;;;;;;;;;5032629;28;20041;-86
2022/01/20 03:33:43;;;;;;;19.77;2.63;;;;;;;;;;5032629;28;20184;-86
2022/01/20 03:36:09;;;;;;;16.60;2.75;;;;;;;;;;5032541;28;20045;-87
2022/01/20 03:38:35;;;;;;;16.17;2.85;;;;;;;;;;5032640;28;20037;-87
2022/01/20 03:41:01;;;;;;;17.75;2.72;;;;;;;;;;5033268;28;20084;-86
2022/01/20 03:43:27;;;;;;;18.48;2.92;;;;;;;;;;5032253;28;20638;-87
2022/01/20 03:45:56;;;;;;;19.63;3.03;;;;;;;;;;5032501;28;20095;-86
2022/01/20 03:48:25;;;;;;;22.52;3.38;;;;;;;;;;5032297;28;20052;-86
2022/01/20 03:51:00;;;;;;;17.13;3.58;;;;;;;;;;5016333;28;20037;-86
2022/01/20 03:53:27;;;;;;;17.05;2.70;;;;;;;;;;5032064;28;20116;-86
2022/01/20 03:55:53;;;;;;;23.42;3.95;;;;;;;;;;5032690;28;20045;-86
2022/01/20 03:58:19;;;;;;;17.55;3.55;;;;;;;;;;5032050;28;20041;-87
2022/01/20 04:00:45;;;;;;;16.80;3.55;;;;;;;;;;5031869;28;20124;-87
2022/01/20 04:03:12;;;;;;;18.23;3.03;;;;;;;;;;5031928;28;20048;-86
2022/01/20 04:05:47;;;;;;;10.30;2.42;;;;;;;;;;5032214;28;20052;-86
2022/01/20 04:08:13;;;;;;;12.07;2.00;;;;;;;;;;5031990;28;20052;-87
2022/01/20 04:10:39;;;;;;;10.40;1.92;;;;;;;;;;5015702;28;20332;-86
2022/01/20 04:13:05;;;;;;;15.85;2.28;;;;;;;;;;5033047;28;20049;-87
2022/01/20 04:15:38;;;;;;;11.25;2.22;;;;;;;;;;5032040;28;20498;-87
2022/01/20 04:18:05;;;;;;;11.93;2.17;;;;;;;;;;5031817;28;20041;-87
2022/01/20 04:20:31;;;;;;;14.95;2.63;;;;;;;;;;5031893;28;20042;-87
2022/01/20 04:22:57;;;;;;;14.57;2.25;;;;;;;;;;5015371;28;20049;-87
2022/01/20 04:25:23;;;;;;;15.80;2.65;;;;;;;;;;5015313;28;20041;-87
2022/01/20 04:27:49;;;;;;;17.48;2.28;;;;;;;;;;5031570;28;20095;-88
2022/01/20 04:30:15;;;;;;;11.65;2.10;;;;;;;;;;5031668;28;20041;-86
2022/01/20 04:32:41;;;;;;;14.82;1.52;;;;;;;;;;5031520;28;20042;-87
2022/01/20 04:35:07;;;;;;;10.70;1.95;;;;;;;;;;5031810;28;20047;-87
2022/01/20 04:37:34;;;;;;;12.75;1.92;;;;;;;;;;5031457;28;20041;-86
2022/01/20 04:40:02;;;;;;;13.80;2.00;;;;;;;;;;5031675;28;20045;-87
2022/01/20 04:42:30;;;;;;;18.92;2.28;;;;;;;;;;5014853;28;20049;-86
2022/01/20 04:45:04;;;;;;;13.15;2.47;;;;;;;;;;5031937;28;20052;-87
2022/01/20 04:47:40;;;;;;;10.40;2.35;;;;;;;;;;5014927;28;20052;-87
2022/01/20 04:58:25;;;;;;;11.38;2.40;;;;;;;;;;5013008;28;20045;-87
2022/01/20 05:00:51;;;;;;;14.15;1.67;;;;;;;;;;5031403;28;20515;-87
2022/01/20 05:03:17;;;;;;;13.30;2.25;;;;;;;;;;5031054;28;20399;-86
2022/01/20 05:05:43;;;;;;;16.40;2.08;;;;;;;;;;5031229;28;20382;-87
2022/01/20 05:08:09;;;;;;;13.40;1.88;;;;;;;;;;5014840;28;20172;-87
2022/01/20 05:10:35;;;;;;;15.20;1.98;;;;;;;;;;5031659;28;20041;-87
2022/01/20 05:13:12;;;;;;;15.80;2.65;;;;;;;;;;5034967;28;20056;-88
2022/01/20 05:15:39;;;;;;;16.05;2.58;;;;;;;;;;5035403;28;20045;-88
2022/01/20 05:18:05;;;;;;;11.35;2.35;;;;;;;;;;5036281;28;20060;-86
2022/01/20 05:20:31;;;;;;;16.02;2.83;;;;;;;;;;5035198;28;20487;-88
2022/01/20 05:22:57;;;;;;;12.20;1.73;;;;;;;;;;5034944;28;20073;-87
2022/01/20 05:25:23;;;;;;;11.98;2.38;;;;;;;;;;5018741;28;20103;-87
2022/01/20 05:27:49;;;;;;;14.93;2.03;;;;;;;;;;5034883;28;20446;-87
2022/01/20 05:30:15;;;;;;;11.05;1.63;;;;;;;;;;5035076;28;20034;-87
2022/01/20 05:32:41;;;;;;;8.48;1.45;;;;;;;;;;5034878;28;20053;-86
2022/01/20 05:35:07;;;;;;;5.30;1.17;;;;;;;;;;5035348;28;20064;-86
2022/01/20 05:37:33;;;;;;;9.35;1.40;;;;;;;;;;5034780;28;20594;-87
2022/01/20 05:39:59;;;;;;;10.18;1.20;;;;;;;;;;5035638;28;20140;-87
2022/01/20 05:42:25;;;;;;;7.28;1.10;;;;;;;;;;5034540;28;20555;-86
2022/01/20 05:44:52;;;;;;;12.80;1.90;;;;;;;;;;5035055;28;20209;-86
2022/01/20 05:47:25;;;;;;;12.48;1.83;;;;;;;;;;5034691;28;20099;-87
2022/01/20 05:49:51;;;;;;;8.73;1.40;;;;;;;;;;5034741;28;20476;-87
2022/01/20 05:52:19;;;;;;;9.48;1.48;;;;;;;;;;5034552;28;20565;-87
2022/01/20 05:54:45;;;;;;;7.10;1.00;;;;;;;;;;5035835;28;20041;-86
2022/01/20 05:57:11;;;;;;;9.85;1.83;;;;;;;;;;5034640;28;20514;-86
2022/01/20 05:59:37;;;;;;;14.07;2.38;;;;;;;;;;5034225;28;20088;-86
2022/01/20 06:02:12;;;;;;;13.68;2.15;;;;;;;;;;5034636;28;20496;-86
2022/01/20 06:04:38;;;;;;;12.52;1.58;;;;;;;;;;5017764;28;20052;-87
2022/01/20 06:07:04;;;;;;;15.18;2.30;;;;;;;;;;5017811;28;20041;-86
2022/01/20 06:09:30;;;;;;;17.10;1.92;;;;;;;;;;5034139;28;20041;-86
2022/01/20 06:11:56;;;;;;;11.10;2.10;;;;;;;;;;5034324;28;20037;-86
2022/01/20 06:14:23;;;;;;;13.10;2.30;;;;;;;;;;5033950;28;20096;-88
2022/01/20 06:16:49;;;;;;;14.15;2.30;;;;;;;;;;5034252;28;20049;-87
2022/01/20 06:19:16;;;;;;;16.10;2.63;;;;;;;;;;5034051;28;20101;-88
2022/01/20 06:21:42;;;;;;;17.02;2.20;;;;;;;;;;5034406;28;20044;-88
2022/01/20 06:24:08;;;;;;;19.77;2.30;;;;;;;;;;5032973;28;20467;-85
2022/01/20 06:26:34;;;;;;;12.77;2.03;;;;;;;;;;5033865;28;20052;-88
2022/01/20 06:29:00;;;;;;;13.65;2.33;;;;;;;;;;5033599;28;20045;-85
2022/01/20 06:31:26;;;;;;;16.23;2.25;;;;;;;;;;5033472;28;20041;-88
2022/01/20 06:33:52;;;;;;;18.48;3.22;;;;;;;;;;5037054;28;20045;-87
2022/01/20 06:36:18;;;;;;;14.50;1.92;;;;;;;;;;5037931;28;20056;-88
2022/01/20 06:38:44;;;;;;;11.98;2.10;;;;;;;;;;5033372;28;20160;-88
2022/01/20 06:41:10;;;;;;;13.35;2.55;;;;;;;;;;5033645;28;20100;-87
2022/01/20 06:43:36;;;;;;;15.25;2.58;;;;;;;;;;5033110;28;20049;-87
2022/01/20 06:46:02;;;;;;;18.60;2.80;;;;;;;;;;5033294;28;20060;-88
2022/01/20 06:48:28;;;;;;;14.18;2.55;;;;;;;;;;5034277;28;20045;-87
2022/01/20 06:50:54;;;;;;;14.77;2.80;;;;;;;;;;5033139;28;20038;-88
2022/01/20 06:53:20;;;;;;;16.95;2.83;;;;;;;;;;5032817;28;20049;-88
2022/01/20 06:55:46;;;;;;;14.95;2.20;;;;;;;;;;5033373;28;20193;-87
2022/01/20 06:58:12;;;;;;;13.20;1.92;;;;;;;;;;5033301;28;20564;-87
2022/01/20 07:00:38;;;;;;;11.82;2.45;;;;;;;;;;5033141;28;20134;-87
2022/01/20 07:03:04;;;;;;;12.85;2.42;;;;;;;;;;5032721;28;20397;-88
2022/01/20 07:05:29;;;;;;;8.65;1.55;;;;;;;;;;5032939;28;20045;-87
2022/01/20 07:07:55;;;;;;;10.02;1.75;;;;;;;;;;5032950;28;20041;-88
2022/01/20 07:10:21;;;;;;;9.65;1.23;;;;;;;;;;5032670;28;20041;-87
2022/01/20 07:12:48;;;;;;;17.95;2.13;;;;;;;;;;5032704;28;20156;-88
2022/01/20 07:15:15;;;;;;;9.23;1.60;;;;;;;;;;5034044;28;20460;-88
2022/01/20 07:17:41;;;;;;;14.38;2.30;;;;;;;;;;5032686;28;20103;-87
2022/01/20 07:20:08;;;;;;;10.50;1.67;;;;;;;;;;5032502;28;20049;-87
2022/01/20 07:22:34;;;;;;;14.50;2.20;;;;;;;;;;5032498;28;20468;-88
2022/01/20 07:25:00;;;;;;;14.70;2.00;;;;;;;;;;5032163;28;20044;-87
2022/01/20 07:27:28;;;;;;;14.02;2.03;;;;;;;;;;5032365;28;20042;-88
2022/01/20 07:29:54;;;;;;;9.75;2.25;;;;;;;;;;5015818;28;20039;-88
2022/01/20 07:32:20;;;;;;;11.80;2.15;;;;;;;;;;5032240;28;20045;-87
2022/01/20 07:34:46;;;;;;;16.15;2.53;;;;;;;;;;5032361;28;20045;-87
2022/01/20 07:37:12;;;;;;;11.52;2.03;;;;;;;;;;5015714;28;20087;-87
2022/01/20 07:39:38;;;;;;;18.00;2.97;;;;;;;;;;5033120;28;20076;-88
2022/01/20 07:42:04;;;;;;;23.40;3.03;;;;;;;;;;5032127;28;20790;-88
2022/01/20 07:44:30;;;;;;;16.42;2.22;;;;;;;;;;5031755;28;20465;-88
2022/01/20 07:46:57;;;;;;;10.38;1.63;;;;;;;;;;5032194;28;20121;-87
2022/01/20 07:49:23;;;;;;;10.50;1.52;;;;;;;;;;5015856;28;20120;-93
2022/01/20 07:51:49;;;;;;;10.98;1.23;;;;;;;;;;5031561;28;20041;-87
2022/01/20 07:54:15;;;;;;;10.60;2.35;;;;;;;;;;5032367;28;20037;-89
2022/01/20 07:56:41;;;;;;;12.20;1.77;;;;;;;;;;5032497;28;20048;-88
2022/01/20 07:59:08;;;;;;;7.97;1.35;;;;;;;;;;5032064;28;20041;-88
2022/01/20 08:01:34;;;;;;;9.43;1.38;;;;;;;;;;5032952;28;20041;-88
2022/01/20 08:04:00;;;;;;;6.63;1.42;;;;;;;;;;5031930;28;20076;-88
2022/01/20 08:06:26;;;;;;;6.38;1.10;;;;;;;;;;5032078;28;20046;-89
2022/01/20 08:08:52;;;;;;;7.95;0.90;;;;;;;;;;5031860;28;20115;-87
2022/01/20 08:11:19;;;;;;;9.07;1.17;;;;;;;;;;5032103;28;20052;-87
2022/01/20 08:13:45;;;;;;;11.02;1.67;;;;;;;;;;5031705;28;20056;-88
2022/01/20 08:16:11;;;;;;;10.45;1.35;;;;;;;;;;5031964;28;20121;-88
2022/01/20 08:18:37;;;;;;;8.98;1.38;;;;;;;;;;5015688;28;20072;-88
2022/01/20 08:21:03;;;;;;;11.10;1.48;;;;;;;;;;5031779;28;20484;-88
2022/01/20 08:23:29;;;;;;;14.35;2.47;;;;;;;;;;5031723;28;20433;-87
2022/01/20 08:25:55;;;;;;;11.68;1.80;;;;;;;;;;5031690;28;20091;-87
2022/01/20 08:28:22;;;;;;;14.25;2.10;;;;;;;;;;5032150;28;20077;-87
2022/01/20 08:30:49;;;;;;;15.02;2.40;;;;;;;;;;5031758;28;20041;-88
2022/01/20 08:33:15;;;;;;;14.32;2.10;;;;;;;;;;5031751;28;20183;-87
2022/01/20 08:35:41;;;;;;;14.45;2.00;;;;;;;;;;5031697;28;20480;-89
2022/01/20 08:38:07;;;;;;;12.32;2.08;;;;;;;;;;5031903;28;20428;-88
2022/01/20 08:40:34;;;;;;;13.60;2.45;;;;;;;;;;5031481;28;20389;-88
2022/01/20 08:43:01;;;;;;;19.60;3.08;;;;;;;;;;5031613;28;20543;-87
2022/01/20 08:45:29;;;;;;;17.73;2.35;;;;;;;;;;5031014;28;20037;-88
2022/01/20 08:47:56;;;;;;;13.50;2.10;;;;;;;;;;5031840;28;20057;-88
2022/01/20 08:50:23;;;;;;;14.02;1.73;;;;;;;;;;5032527;28;20500;-89
2022/01/20 08:52:49;;;;;;;8.75;1.77;;;;;;;;;;5015021;28;20481;-87
2022/01/20 08:55:16;;;;;;;10.40;1.65;;;;;;;;;;5014904;28;20049;-87
2022/01/20 08:57:42;;;;;;;10.43;1.92;;;;;;;;;;5015159;28;20433;-86
2022/01/20 09:00:09;;;;;;;13.90;2.10;;;;;;;;;;5031262;28;20046;-87
2022/01/20 09:02:36;;;;;;;15.48;1.70;;;;;;;;;;5031376;28;20041;-88
2022/01/20 09:05:03;;;;;;;8.98;1.35;;;;;;;;;;5031411;28;20080;-87
2022/01/20 09:07:29;;;;;;;5.88;0.63;;;;;;;;;;5031418;28;20037;-86
2022/01/20 09:09:56;;;;;;;6.82;0.95;;;;;;;;;;5031232;28;20041;-87
2022/01/20 09:17:46;;;;;;;10.32;1.40;;;;;;;;;;5031298;28;20046;-87
2022/01/20 09:20:12;;;;;;;8.02;1.05;;;;;;;;;;5031408;28;20052;-87
2022/01/20 09:22:38;;;;;;;9.38;1.27;;;;;;;;;;5031211;28;20502;-88
2022/01/20 09:25:05;;;;;;;10.50;1.45;;;;;;;;;;5031085;28;20049;-87
2022/01/20 09:27:31;;;;;;;8.80;1.30;;;;;;;;;;5031285;28;20053;-87
2022/01/20 09:29:57;;;;;;;12.30;1.40;;;;;;;;;;5030998;28;20041;-88
2022/01/20 09:32:26;;;;;;;8.10;1.15;;;;;;;;;;5031126;28;20045;-89
2022/01/20 09:34:52;;;;;;;5.80;1.08;;;;;;;;;;5014441;28;20045;-87
2022/01/20 09:37:18;;;;;;;6.90;1.23;;;;;;;;;;5031130;28;20038;-88
2022/01/20 09:39:45;;;;;;;11.98;1.70;;;;;;;;;;5014652;28;20049;-88
2022/01/20 09:42:12;;;;;;;12.55;1.88;;;;;;;;;;5031010;28;20144;-87
2022/01/20 09:44:44;;;;;;;10.00;2.38;;;;;;;;;;5030979;28;20507;-88
2022/01/20 09:47:10;;;;;;;14.30;2.15;;;;;;;;;;5014619;28;20076;-87
2022/01/20 09:49:37;;;;;;;12.80;1.88;;;;;;;;;;5014607;28;20037;-87
2022/01/20 09:52:03;;;;;;;13.68;1.98;;;;;;;;;;5032013;28;20037;-87
2022/01/20 09:54:29;;;;;;;12.35;1.55;;;;;;;;;;5031435;28;20037;-88
2022/01/20 09:56:57;;;;;;;9.07;1.75;;;;;;;;;;5031393;28;20129;-88
2022/01/20 09:59:23;;;;;;;14.98;1.73;;;;;;;;;;5018222;28;20445;-90
2022/01/20 10:01:52;;;;;;;8.60;1.50;;;;;;;;;;5036750;28;20037;-88
2022/01/20 10:04:18;;;;;;;12.68;2.03;;;;;;;;;;5018015;28;20091;-89
2022/01/20 10:06:56;;;;;;;15.05;2.08;;;;;;;;;;5034383;28;20046;-91
2022/01/20 10:09:30;;;;;;;15.02;2.15;;;;;;;;;;5034637;28;20073;-89
2022/01/20 10:11:56;;;;;;;12.90;2.33;;;;;;;;;;5034002;28;20112;-89
2022/01/20 10:14:22;;;;;;;13.60;2.47;;;;;;;;;;5034087;28;20049;-89
2022/01/20 10:16:48;;;;;;;15.25;2.72;;;;;;;;;;5033966;28;20081;-89
2022/01/20 10:19:24;;;;;;;14.38;2.05;;;;;;;;;;5034168;28;20460;-90
2022/01/20 10:21:50;;;;;;;18.30;2.33;;;;;;;;;;5034052;28;20062;-90
2022/01/20 10:24:17;;;;;;;14.57;2.05;;;;;;;;;;5017757;28;20046;-90
2022/01/20 10:26:44;;;;;;;11.55;2.15;;;;;;;;;;5033825;28;20396;-88
2022/01/20 10:29:14;;;;;;;16.95;2.22;;;;;;;;;;5033943;28;20052;-88
2022/01/20 10:31:40;;;;;;;11.82;2.53;;;;;;;;;;5033847;28;20121;-90
2022/01/20 10:34:08;;;;;;;11.60;2.58;;;;;;;;;;5033778;28;20112;-89
2022/01/20 10:36:40;;;;;;;13.77;2.00;;;;;;;;;;5033554;28;20052;-89
2022/01/20 10:39:06;;;;;;;15.43;2.33;;;;;;;;;;5034056;28;20046;-89
2022/01/20 10:41:37;;;;;;;16.70;3.08;;;;;;;;;;5033936;28;20049;-90
2022/01/20 10:44:08;;;;;;;17.60;2.80;;;;;;;;;;5033658;28;20377;-91
2022/01/20 10:46:46;;;;;;;10.93;1.92;;;;;;;;;;5033416;28;20053;-90
2022/01/20 10:49:12;;;;;;;13.63;2.25;;;;;;;;;;5017368;28;20037;-90
2022/01/20 10:51:38;;;;;;;10.70;2.22;;;;;;;;;;5033676;28;20510;-90
2022/01/20 10:54:05;;;;;;;11.52;1.52;;;;;;;;;;5033466;28;20041;-89
2022/01/20 10:56:37;;;;;;;13.13;1.70;;;;;;;;;;5033230;28;20045;-89
2022/01/20 10:59:06;;;;;;;13.15;2.30;;;;;;;;;;5017022;28;20048;-89
2022/01/20 11:01:32;;;;;;;11.98;2.35;;;;;;;;;;5033226;28;20045;-89
2022/01/20 11:03:59;;;;;;;15.75;2.13;;;;;;;;;;5033552;28;20073;-90
2022/01/20 11:06:24;;;;;;;17.83;2.38;;;;;;;;;;5016672;28;20052;-89
2022/01/20 11:08:52;;;;;;;17.63;2.60;;;;;;;;;;5032876;28;20049;-89
2022/01/20 11:11:18;;;;;;;14.70;2.75;;;;;;;;;;5016501;28;20043;-89
2022/01/20 11:13:44;;;;;;;15.60;2.92;;;;;;;;;;5032935;28;20055;-89
2022/01/20 11:16:10;;;;;;;18.85;3.95;;;;;;;;;;5032950;28;20132;-91
2022/01/20 11:18:37;;;;;;;15.40;3.88;;;;;;;;;;5033093;28;20096;-89
2022/01/20 11:21:05;;;;;;;18.65;3.58;;;;;;;;;;5032895;28;20050;-89
2022/01/20 11:23:38;;;;;;;15.13;3.08;;;;;;;;;;5016424;28;20049;-89
2022/01/20 11:26:05;;;;;;;15.00;2.35;;;;;;;;;;5032740;28;20049;-89
2022/01/20 11:28:31;;;;;;;13.23;2.75;;;;;;;;;;5032949;28;20041;-89
2022/01/20 11:31:05;;;;;;;16.23;2.25;;;;;;;;;;5016118;28;20034;-90
2022/01/20 11:33:35;;;;;;;9.85;2.33;;;;;;;;;;5032682;28;20566;-89
2022/01/20 11:36:02;;;;;;;9.30;1.75;;;;;;;;;;5032576;28;20099;-90
2022/01/20 11:38:47;;;;;;;15.52;2.20;;;;;;;;;;5016403;28;20416;-90
2022/01/20 11:41:16;;;;;;;16.63;2.55;;;;;;;;;;5016990;28;20098;-88
2022/01/20 11:43:46;;;;;;;11.65;1.85;;;;;;;;;;5015983;28;20041;-88
2022/01/20 11:46:16;;;;;;;12.55;2.00;;;;;;;;;;5032355;28;20045;-87
2022/01/20 11:48:53;;;;;;;11.10;1.70;;;;;;;;;;5032539;28;20033;-88
2022/01/20 11:51:20;;;;;;;13.70;2.03;;;;;;;;;;5032265;28;20040;-88
2022/01/20 11:54:00;;;;;;;14.45;2.22;;;;;;;;;;5032228;28;20185;-88
2022/01/20 11:56:34;;;;;;;14.55;2.05;;;;;;;;;;5032091;28;20128;-89
2022/01/20 11:59:01;;;;;;;16.70;2.83;;;;;;;;;;5032270;28;20045;-88
2022/01/20 12:01:29;;;;;;;12.50;1.88;;;;;;;;;;5015429;28;20053;-87
2022/01/20 12:03:56;;;;;;;10.38;1.80;;;;;;;;;;5015987;28;20115;-88
2022/01/20 12:06:24;;;;;;;12.68;2.10;;;;;;;;;;5015507;28;20124;-88
2022/01/20 12:08:58;;;;;;;17.83;2.60;;;;;;;;;;5016065;28;20049;-90
2022/01/20 12:11:34;;;;;;;18.15;2.83;;;;;;;;;;5032121;28;20060;-87
2022/01/20 12:14:00;;;;;;;12.57;2.38;;;;;;;;;;5031721;28;20054;-88
2022/01/20 12:16:26;;;;;;;14.50;2.55;;;;;;;;;;5032249;28;20045;-88
2022/01/20 12:18:54;;;;;;;16.40;3.20;;;;;;;;;;5032195;28;20111;-88
2022/01/20 12:21:20;;;;;;;19.90;2.72;;;;;;;;;;5031155;28;20041;-87
2022/01/20 12:23:47;;;;;;;15.63;3.33;;;;;;;;;;5032031;28;20045;-88
2022/01/20 12:26:13;;;;;;;12.85;2.20;;;;;;;;;;5031803;28;20045;-87
2022/01/20 12:28:39;;;;;;;10.77;2.13;;;;;;;;;;5031572;28;20038;-88
2022/01/20 12:31:06;;;;;;;16.80;2.05;;;;;;;;;;5015379;28;20477;-88
2022/01/20 12:33:34;;;;;;;12.10;1.70;;;;;;;;;;5014633;28;20048;-88
2022/01/20 12:36:04;;;;;;;12.68;1.95;;;;;;;;;;5029739;28;20477;-91
2022/01/20 12:38:35;;;;;;;13.45;1.83;;;;;;;;;;5014559;28;20046;-89
2022/01/20 12:41:15;;;;;;;13.77;1.95;;;;;;;;;;5012155;28;20046;-88
2022/01/20 12:43:45;;;;;;;13.90;1.90;;;;;;;;;;5011974;28;20116;-88
2022/01/20 12:46:14;;;;;;;8.15;2.10;;;;;;;;;;5011814;28;20532;-88
2022/01/20 12:48:50;;;;;;;9.85;1.95;;;;;;;;;;5011579;28;20042;-88
2022/01/20 12:51:16;;;;;;;16.08;2.50;;;;;;;;;;5025270;28;20116;-88
2022/01/20 12:53:45;;;;;;;14.65;2.38;;;;;;;;;;5031538;28;20046;-88
2022/01/20 12:56:12;;;;;;;8.27;1.70;;;;;;;;;;5015010;28;20411;-89
2022/01/20 12:58:49;;;;;;;13.25;2.17;;;;;;;;;;5014841;28;20073;-88
2022/01/20 13:01:15;;;;;;;11.32;1.80;;;;;;;;;;5031472;28;20441;-88
2022/01/20 13:03:42;;;;;;;9.80;1.75;;;;;;;;;;5031396;28;20132;-87
2022/01/20 13:06:10;;;;;;;20.27;2.55;;;;;;;;;;5015161;28;20480;-88
2022/01/20 13:08:40;;;;;;;17.00;2.72;;;;;;;;;;5014781;28;20136;-87
2022/01/20 13:11:08;;;;;;;16.10;2.88;;;;;;;;;;5015034;28;20061;-88
2022/01/20 13:13:35;;;;;;;14.10;2.03;;;;;;;;;;5031004;28;20063;-88
2022/01/20 13:16:13;;;;;;;15.07;2.20;;;;;;;;;;5031792;28;20373;-89
2022/01/20 13:18:39;;;;;;;15.45;1.92;;;;;;;;;;5031102;28;20045;-89
2022/01/20 13:21:08;;;;;;;17.35;2.13;;;;;;;;;;5031392;28;20064;-88
2022/01/20 13:23:57;;;;;;;11.25;2.10;;;;;;;;;;5014733;28;20057;-87
2022/01/20 13:26:24;;;;;;;7.60;1.00;;;;;;;;;;5030897;28;20099;-88
2022/01/20 13:29:00;;;;;;;12.43;2.13;;;;;;;;;;4998074;28;20082;-89
2022/01/20 13:31:26;;;;;;;11.70;2.10;;;;;;;;;;5027457;28;20100;-87
2022/01/20 13:33:52;;;;;;;11.50;1.90;;;;;;;;;;5034681;28;20496;-88
2022/01/20 13:36:21;;;;;;;6.50;1.10;;;;;;;;;;5035291;28;20056;-87
2022/01/20 13:38:50;;;;;;;7.97;1.77;;;;;;;;;;5018600;28;20049;-87
2022/01/20 13:41:20;;;;;;;10.35;1.25;;;;;;;;;;5035239;28;20384;-87
2022/01/20 13:46:40;;;;;;;8.40;1.17;;;;;;;;;;5032261;28;20049;-87
2022/01/20 13:49:08;;;;;;;7.40;1.10;;;;;;;;;;5035852;28;20488;-91
2022/01/20 13:51:34;;;;;;;9.75;1.40;;;;;;;;;;5034760;28;20116;-88
2022/01/20 13:54:01;;;;;;;6.95;1.85;;;;;;;;;;5034446;28;20069;-86
2022/01/20 13:56:28;;;;;;;10.45;1.50;;;;;;;;;;5034936;28;20046;-89
2022/01/20 13:59:02;;;;;;;11.00;1.65;;;;;;;;;;5017735;28;20400;-89
2022/01/20 14:01:28;;;;;;;7.90;1.40;;;;;;;;;;5034587;28;20104;-89
2022/01/20 14:03:53;;;;;;;7.05;1.45;;;;;;;;;;5034356;28;20522;-88
2022/01/20 14:06:19;;;;;;;8.57;2.08;;;;;;;;;;5034565;28;20049;-88
2022/01/20 14:08:48;;;;;;;10.00;1.48;;;;;;;;;;5034186;28;20052;-89
2022/01/20 14:11:14;;;;;;;11.18;1.55;;;;;;;;;;5034317;28;20052;-89
2022/01/20 14:13:40;;;;;;;11.95;1.73;;;;;;;;;;5033796;28;20057;-88
2022/01/20 14:16:06;;;;;;;13.50;2.13;;;;;;;;;;5034438;28;20099;-88
2022/01/20 14:18:41;;;;;;;11.52;1.83;;;;;;;;;;5034206;28;20099;-88
2022/01/20 14:21:08;;;;;;;11.37;1.70;;;;;;;;;;5017660;28;20037;-88
2022/01/20 14:23:34;;;;;;;9.93;1.52;;;;;;;;;;5034211;28;20315;-88
2022/01/20 14:26:01;;;;;;;8.02;1.60;;;;;;;;;;5034234;28;20128;-89
2022/01/20 14:28:27;;;;;;;17.40;2.45;;;;;;;;;;5017712;28;20069;-88
2022/01/20 14:30:53;;;;;;;14.00;1.77;;;;;;;;;;5034308;28;20073;-89
2022/01/20 14:33:20;;;;;;;8.52;1.63;;;;;;;;;;5033726;28;20041;-88
2022/01/20 14:35:46;;;;;;;11.52;1.77;;;;;;;;;;5034220;28;20048;-88
2022/01/20 14:38:12;;;;;;;14.10;2.00;;;;;;;;;;5033640;28;20492;-89
2022/01/20 14:40:38;;;;;;;12.65;2.33;;;;;;;;;;5034015;28;20207;-88
2022/01/20 14:43:04;;;;;;;14.77;2.30;;;;;;;;;;5033324;28;20149;-88
2022/01/20 14:45:30;;;;;;;16.98;1.90;;;;;;;;;;5033358;28;20192;-89
2022/01/20 14:47:56;;;;;;;13.50;2.05;;;;;;;;;;5033469;28;20068;-90
2022/01/20 14:50:23;;;;;;;11.02;2.13;;;;;;;;;;5033866;28;20064;-90
2022/01/20 14:52:49;;;;;;;13.07;2.25;;;;;;;;;;5033333;28;20042;-86
2022/01/20 14:55:15;;;;;;;14.88;2.40;;;;;;;;;;5033515;28;20040;-86
2022/01/20 14:57:41;;;;;;;17.30;2.38;;;;;;;;;;5033427;28;20449;-85
2022/01/20 15:00:08;;;;;;;12.73;2.08;;;;;;;;;;5033515;28;20063;-86
2022/01/20 15:02:34;;;;;;;19.60;2.90;;;;;;;;;;5033703;28;20042;-86
2022/01/20 15:05:00;;;;;;;16.58;2.28;;;;;;;;;;5033208;28;20488;-86
2022/01/20 15:07:26;;;;;;;9.07;1.63;;;;;;;;;;5033149;28;20389;-86
2022/01/20 15:09:52;;;;;;;14.52;2.10;;;;;;;;;;5036679;28;20041;-85
2022/01/20 15:12:19;;;;;;;8.40;2.10;;;;;;;;;;5033188;28;20041;-85
2022/01/20 15:14:45;;;;;;;8.80;1.02;;;;;;;;;;5032873;28;20060;-85
2022/01/20 15:17:11;;;;;;;10.48;1.38;;;;;;;;;;5016667;28;20052;-86
2022/01/20 15:19:37;;;;;;;10.25;1.55;;;;;;;;;;5032469;28;20448;-86
2022/01/20 15:22:03;;;;;;;11.10;1.63;;;;;;;;;;5032645;28;20045;-85
2022/01/20 15:24:32;;;;;;;14.70;1.92;;;;;;;;;;5033008;28;20045;-85
2022/01/20 15:26:58;;;;;;;13.15;2.10;;;;;;;;;;5032978;28;20081;-85
2022/01/20 15:29:24;;;;;;;12.50;2.17;;;;;;;;;;5016098;28;20484;-85
2022/01/20 15:31:50;;;;;;;13.00;2.28;;;;;;;;;;5032806;28;20040;-85
2022/01/20 15:34:16;;;;;;;11.65;2.33;;;;;;;;;;5032467;28;20396;-85
2022/01/20 15:36:45;;;;;;;17.42;4.70;;;;;;;;;;5033042;28;20059;-85
2022/01/20 15:39:12;;;;;;;10.88;2.13;;;;;;;;;;5015978;28;20131;-85
2022/01/20 15:41:39;;;;;;;13.55;2.33;;;;;;;;;;5033919;28;20444;-85
2022/01/20 15:44:05;;;;;;;14.20;2.47;;;;;;;;;;5032685;28;20092;-85